sensor_id;sensor_type;location;lat;lon;timestamp;pressure;altitude;pressure_sealevel;temperature;humidity
68855;BME280;69984;-43.570;172.580;2023-08-31T00:01:19;101909.72;;;20.10;40.13
68855;BME280;69984;-43.570;172.580;2023-08-31T00:03:46;101915.47;;;20.21;39.64
68855;BME280;69984;-43.570;172.580;2023-08-31T00:06:13;101913.88;;;20.35;40.94
68855;BME280;69984;-43.570;172.580;2023-08-31T00:08:41;101903.47;;;20.77;40.05
68855;BME280;69984;-43.570;172.580;2023-08-31T00:11:08;101908.63;;;20.93;39.49
68855;BME280;69984;-43.570;172.580;2023-08-31T00:13:35;101906.69;;;20.73;38.70
68855;BME280;69984;-43.570;172.580;2023-08-31T00:16:02;101903.75;;;20.68;37.74
68855;BME280;69984;-43.570;172.580;2023-08-31T00:18:29;101904.53;;;21.20;38.20
68855;BME280;69984;-43.570;172.580;2023-08-31T00:20:56;101901.47;;;20.65;37.51
68855;BME280;69984;-43.570;172.580;2023-08-31T00:23:24;101904.81;;;20.59;39.08
68855;BME280;69984;-43.570;172.580;2023-08-31T00:25:52;101905.56;;;20.07;39.79
68855;BME280;69984;-43.570;172.580;2023-08-31T00:28:20;101890.78;;;20.79;38.89
68855;BME280;69984;-43.570;172.580;2023-08-31T00:30:47;101892.19;;;21.05;38.19
68855;BME280;69984;-43.570;172.580;2023-08-31T00:33:15;101890.22;;;20.69;38.23
68855;BME280;69984;-43.570;172.580;2023-08-31T00:35:42;101890.25;;;20.84;38.22
68855;BME280;69984;-43.570;172.580;2023-08-31T00:38:12;101886.19;;;20.73;37.85
68855;BME280;69984;-43.570;172.580;2023-08-31T00:40:46;101887.22;;;20.58;37.93
68855;BME280;69984;-43.570;172.580;2023-08-31T00:43:14;101888.38;;;20.55;37.52
68855;BME280;69984;-43.570;172.580;2023-08-31T00:45:49;101876.00;;;20.48;37.32
68855;BME280;69984;-43.570;172.580;2023-08-31T00:48:17;101868.72;;;20.56;36.94
68855;BME280;69984;-43.570;172.580;2023-08-31T00:50:48;101875.72;;;20.86;35.87
68855;BME280;69984;-43.570;172.580;2023-08-31T00:53:16;101867.81;;;21.08;35.60
68855;BME280;69984;-43.570;172.580;2023-08-31T00:55:46;101867.34;;;21.33;34.36
68855;BME280;69984;-43.570;172.580;2023-08-31T00:58:14;101863.88;;;20.89;34.40
68855;BME280;69984;-43.570;172.580;2023-08-31T01:03:57;101860.47;;;21.39;34.27
68855;BME280;69984;-43.570;172.580;2023-08-31T01:12:10;101862.06;;;21.76;33.88
68855;BME280;69984;-43.570;172.580;2023-08-31T01:15:03;101849.16;;;21.22;35.12
68855;BME280;69984;-43.570;172.580;2023-08-31T01:17:50;101843.91;;;21.29;33.60
68855;BME280;69984;-43.570;172.580;2023-08-31T01:23:13;101832.50;;;21.35;36.18
68855;BME280;69984;-43.570;172.580;2023-08-31T01:25:43;101816.25;;;21.51;34.97
68855;BME280;69984;-43.570;172.580;2023-08-31T01:28:11;101825.97;;;22.22;33.56
68855;BME280;69984;-43.570;172.580;2023-08-31T01:30:38;101821.03;;;21.77;33.63
68855;BME280;69984;-43.570;172.580;2023-08-31T01:33:06;101824.44;;;22.13;33.42
68855;BME280;69984;-43.570;172.580;2023-08-31T01:35:50;101832.50;;;22.75;32.88
68855;BME280;69984;-43.570;172.580;2023-08-31T01:38:24;101821.97;;;21.12;34.66
68855;BME280;69984;-43.570;172.580;2023-08-31T01:41:03;101823.84;;;21.90;33.98
68855;BME280;69984;-43.570;172.580;2023-08-31T01:43:32;101814.84;;;21.34;35.56
68855;BME280;69984;-43.570;172.580;2023-08-31T01:46:00;101819.28;;;20.98;35.08
68855;BME280;69984;-43.570;172.580;2023-08-31T01:48:28;101818.19;;;21.07;34.61
68855;BME280;69984;-43.570;172.580;2023-08-31T01:50:55;101811.53;;;21.74;34.24
68855;BME280;69984;-43.570;172.580;2023-08-31T01:53:22;101809.09;;;21.94;33.88
68855;BME280;69984;-43.570;172.580;2023-08-31T01:55:49;101807.03;;;21.54;33.79
68855;BME280;69984;-43.570;172.580;2023-08-31T01:58:16;101804.34;;;20.82;35.42
68855;BME280;69984;-43.570;172.580;2023-08-31T02:00:43;101807.25;;;21.16;35.70
68855;BME280;69984;-43.570;172.580;2023-08-31T02:03:11;101802.41;;;21.62;33.25
68855;BME280;69984;-43.570;172.580;2023-08-31T02:05:38;101789.28;;;22.10;34.04
68855;BME280;69984;-43.570;172.580;2023-08-31T02:08:05;101793.97;;;21.80;34.70
68855;BME280;69984;-43.570;172.580;2023-08-31T02:10:32;101798.34;;;22.09;34.22
68855;BME280;69984;-43.570;172.580;2023-08-31T02:12:59;101801.03;;;22.43;32.84
68855;BME280;69984;-43.570;172.580;2023-08-31T02:15:27;101794.88;;;21.30;34.29
68855;BME280;69984;-43.570;172.580;2023-08-31T02:17:54;101798.03;;;21.76;34.71
68855;BME280;69984;-43.570;172.580;2023-08-31T02:20:21;101788.63;;;20.43;36.76
68855;BME280;69984;-43.570;172.580;2023-08-31T02:22:48;101795.66;;;21.87;35.09
68855;BME280;69984;-43.570;172.580;2023-08-31T02:25:16;101793.31;;;21.99;33.80
68855;BME280;69984;-43.570;172.580;2023-08-31T02:27:43;101794.09;;;21.15;34.19
68855;BME280;69984;-43.570;172.580;2023-08-31T02:30:10;101790.88;;;22.32;33.75
68855;BME280;69984;-43.570;172.580;2023-08-31T02:32:37;101790.34;;;20.80;34.84
68855;BME280;69984;-43.570;172.580;2023-08-31T02:35:05;101785.28;;;21.00;35.72
68855;BME280;69984;-43.570;172.580;2023-08-31T02:37:33;101779.66;;;20.21;37.88
68855;BME280;69984;-43.570;172.580;2023-08-31T02:40:00;101776.19;;;20.94;33.15
68855;BME280;69984;-43.570;172.580;2023-08-31T02:42:27;101775.13;;;20.59;34.32
68855;BME280;69984;-43.570;172.580;2023-08-31T02:44:54;101772.56;;;20.36;34.71
68855;BME280;69984;-43.570;172.580;2023-08-31T02:47:21;101772.94;;;20.33;34.28
68855;BME280;69984;-43.570;172.580;2023-08-31T02:49:48;101771.16;;;20.26;34.38
68855;BME280;69984;-43.570;172.580;2023-08-31T02:52:15;101756.84;;;20.56;36.11
68855;BME280;69984;-43.570;172.580;2023-08-31T02:54:42;101769.22;;;21.29;35.33
68855;BME280;69984;-43.570;172.580;2023-08-31T02:57:09;101765.81;;;21.56;33.81
68855;BME280;69984;-43.570;172.580;2023-08-31T02:59:36;101768.41;;;20.78;33.02
68855;BME280;69984;-43.570;172.580;2023-08-31T03:02:04;101765.75;;;20.78;33.65
68855;BME280;69984;-43.570;172.580;2023-08-31T03:04:31;101762.41;;;20.90;34.07
68855;BME280;69984;-43.570;172.580;2023-08-31T03:06:58;101759.44;;;21.78;32.20
68855;BME280;69984;-43.570;172.580;2023-08-31T03:09:25;101760.13;;;20.73;33.18
68855;BME280;69984;-43.570;172.580;2023-08-31T03:11:52;101762.56;;;20.53;33.38
68855;BME280;69984;-43.570;172.580;2023-08-31T03:14:19;101752.41;;;20.78;33.20
68855;BME280;69984;-43.570;172.580;2023-08-31T03:16:46;101751.69;;;20.25;33.11
68855;BME280;69984;-43.570;172.580;2023-08-31T03:19:15;101744.88;;;20.81;32.78
68855;BME280;69984;-43.570;172.580;2023-08-31T03:21:42;101743.66;;;20.99;34.72
68855;BME280;69984;-43.570;172.580;2023-08-31T03:24:09;101740.53;;;20.95;34.73
68855;BME280;69984;-43.570;172.580;2023-08-31T03:26:36;101737.19;;;20.72;34.34
68855;BME280;69984;-43.570;172.580;2023-08-31T03:29:03;101730.03;;;20.43;34.56
68855;BME280;69984;-43.570;172.580;2023-08-31T03:31:30;101734.69;;;20.12;34.80
68855;BME280;69984;-43.570;172.580;2023-08-31T03:33:58;101735.19;;;20.30;34.59
68855;BME280;69984;-43.570;172.580;2023-08-31T03:36:25;101735.75;;;20.40;34.21
68855;BME280;69984;-43.570;172.580;2023-08-31T03:38:52;101725.31;;;20.74;33.53
68855;BME280;69984;-43.570;172.580;2023-08-31T03:41:19;101729.13;;;20.51;35.09
68855;BME280;69984;-43.570;172.580;2023-08-31T03:43:46;101735.88;;;20.24;35.12
68855;BME280;69984;-43.570;172.580;2023-08-31T03:46:13;101737.84;;;19.92;35.06
68855;BME280;69984;-43.570;172.580;2023-08-31T03:48:40;101732.88;;;20.41;33.58
68855;BME280;69984;-43.570;172.580;2023-08-31T03:51:07;101736.19;;;19.91;35.55
68855;BME280;69984;-43.570;172.580;2023-08-31T03:53:35;101731.81;;;19.99;36.61
68855;BME280;69984;-43.570;172.580;2023-08-31T03:56:02;101728.59;;;20.03;34.70
68855;BME280;69984;-43.570;172.580;2023-08-31T03:58:30;101719.69;;;20.33;33.87
68855;BME280;69984;-43.570;172.580;2023-08-31T04:00:57;101720.91;;;21.17;33.92
68855;BME280;69984;-43.570;172.580;2023-08-31T04:03:24;101722.38;;;20.25;35.31
68855;BME280;69984;-43.570;172.580;2023-08-31T04:05:55;101726.25;;;20.37;34.38
68855;BME280;69984;-43.570;172.580;2023-08-31T04:08:23;101731.78;;;20.36;33.32
68855;BME280;69984;-43.570;172.580;2023-08-31T04:10:50;101724.59;;;20.66;33.64
68855;BME280;69984;-43.570;172.580;2023-08-31T04:13:17;101732.19;;;20.83;33.64
68855;BME280;69984;-43.570;172.580;2023-08-31T04:15:44;101729.78;;;20.88;33.59
68855;BME280;69984;-43.570;172.580;2023-08-31T04:18:11;101721.22;;;21.29;34.07
68855;BME280;69984;-43.570;172.580;2023-08-31T04:20:38;101724.13;;;21.76;32.90
68855;BME280;69984;-43.570;172.580;2023-08-31T04:23:05;101729.81;;;21.24;33.54
68855;BME280;69984;-43.570;172.580;2023-08-31T04:25:32;101722.50;;;20.97;33.10
68855;BME280;69984;-43.570;172.580;2023-08-31T04:27:59;101722.63;;;21.67;31.66
68855;BME280;69984;-43.570;172.580;2023-08-31T04:30:26;101724.41;;;22.09;32.03
68855;BME280;69984;-43.570;172.580;2023-08-31T04:32:53;101719.13;;;21.67;32.04
68855;BME280;69984;-43.570;172.580;2023-08-31T04:35:20;101728.78;;;21.47;32.52
68855;BME280;69984;-43.570;172.580;2023-08-31T04:37:48;101729.13;;;22.14;31.29
68855;BME280;69984;-43.570;172.580;2023-08-31T04:40:15;101732.28;;;22.24;32.08
68855;BME280;69984;-43.570;172.580;2023-08-31T04:42:42;101722.25;;;22.32;31.87
68855;BME280;69984;-43.570;172.580;2023-08-31T04:45:10;101727.84;;;21.82;32.65
68855;BME280;69984;-43.570;172.580;2023-08-31T04:47:38;101726.19;;;21.32;32.65
68855;BME280;69984;-43.570;172.580;2023-08-31T04:50:06;101726.06;;;22.17;31.35
68855;BME280;69984;-43.570;172.580;2023-08-31T04:52:33;101719.53;;;23.14;30.05
68855;BME280;69984;-43.570;172.580;2023-08-31T04:55:05;101727.53;;;21.42;31.98
68855;BME280;69984;-43.570;172.580;2023-08-31T04:57:37;101724.22;;;21.89;31.74
68855;BME280;69984;-43.570;172.580;2023-08-31T05:00:05;101725.38;;;22.83;31.03
68855;BME280;69984;-43.570;172.580;2023-08-31T05:02:35;101727.69;;;22.52;30.27
68855;BME280;69984;-43.570;172.580;2023-08-31T05:05:03;101729.56;;;22.17;30.34
68855;BME280;69984;-43.570;172.580;2023-08-31T05:07:30;101734.38;;;21.52;31.03
68855;BME280;69984;-43.570;172.580;2023-08-31T05:09:57;101732.28;;;21.96;31.44
68855;BME280;69984;-43.570;172.580;2023-08-31T05:12:24;101726.13;;;21.96;31.66
68855;BME280;69984;-43.570;172.580;2023-08-31T05:14:51;101723.66;;;21.09;32.57
68855;BME280;69984;-43.570;172.580;2023-08-31T05:17:18;101725.53;;;20.94;32.62
68855;BME280;69984;-43.570;172.580;2023-08-31T05:19:45;101723.88;;;21.50;31.83
68855;BME280;69984;-43.570;172.580;2023-08-31T05:22:13;101721.53;;;21.40;32.15
68855;BME280;69984;-43.570;172.580;2023-08-31T05:24:40;101720.59;;;21.48;31.57
68855;BME280;69984;-43.570;172.580;2023-08-31T05:27:07;101715.81;;;21.22;32.56
68855;BME280;69984;-43.570;172.580;2023-08-31T05:29:34;101721.25;;;20.93;33.03
68855;BME280;69984;-43.570;172.580;2023-08-31T05:32:01;101715.97;;;20.49;33.97
68855;BME280;69984;-43.570;172.580;2023-08-31T05:34:29;101729.63;;;20.17;34.69
68855;BME280;69984;-43.570;172.580;2023-08-31T05:36:58;101730.22;;;19.29;35.64
68855;BME280;69984;-43.570;172.580;2023-08-31T05:39:25;101730.72;;;19.56;36.46
68855;BME280;69984;-43.570;172.580;2023-08-31T05:41:52;101728.66;;;19.12;37.44
68855;BME280;69984;-43.570;172.580;2023-08-31T05:44:19;101725.81;;;19.44;37.74
68855;BME280;69984;-43.570;172.580;2023-08-31T05:46:47;101733.88;;;18.67;39.29
68855;BME280;69984;-43.570;172.580;2023-08-31T05:49:14;101740.88;;;17.72;41.30
68855;BME280;69984;-43.570;172.580;2023-08-31T05:51:41;101740.44;;;16.61;43.94
68855;BME280;69984;-43.570;172.580;2023-08-31T05:54:08;101743.84;;;15.93;46.30
68855;BME280;69984;-43.570;172.580;2023-08-31T05:56:41;101745.16;;;15.54;47.88
68855;BME280;69984;-43.570;172.580;2023-08-31T05:59:08;101743.31;;;15.19;49.00
68855;BME280;69984;-43.570;172.580;2023-08-31T06:01:35;101750.94;;;14.77;50.63
68855;BME280;69984;-43.570;172.580;2023-08-31T06:04:03;101751.25;;;14.65;51.23
68855;BME280;69984;-43.570;172.580;2023-08-31T06:06:31;101753.44;;;14.42;52.00
68855;BME280;69984;-43.570;172.580;2023-08-31T06:08:59;101743.63;;;14.25;52.12
68855;BME280;69984;-43.570;172.580;2023-08-31T06:11:26;101746.53;;;14.22;53.04
68855;BME280;69984;-43.570;172.580;2023-08-31T06:13:54;101752.16;;;13.99;54.11
68855;BME280;69984;-43.570;172.580;2023-08-31T06:16:21;101762.28;;;13.94;54.52
68855;BME280;69984;-43.570;172.580;2023-08-31T06:18:49;101761.31;;;13.86;54.89
68855;BME280;69984;-43.570;172.580;2023-08-31T06:21:16;101763.13;;;13.85;55.82
68855;BME280;69984;-43.570;172.580;2023-08-31T06:23:43;101771.72;;;13.87;55.35
68855;BME280;69984;-43.570;172.580;2023-08-31T06:26:10;101773.94;;;13.73;56.34
68855;BME280;69984;-43.570;172.580;2023-08-31T06:28:37;101777.97;;;13.67;56.77
68855;BME280;69984;-43.570;172.580;2023-08-31T06:31:05;101776.28;;;13.37;57.63
68855;BME280;69984;-43.570;172.580;2023-08-31T06:33:32;101773.38;;;13.40;57.07
68855;BME280;69984;-43.570;172.580;2023-08-31T06:35:59;101773.38;;;13.40;57.62
68855;BME280;69984;-43.570;172.580;2023-08-31T06:38:26;101778.09;;;13.46;57.09
68855;BME280;69984;-43.570;172.580;2023-08-31T06:40:53;101776.66;;;13.23;57.45
68855;BME280;69984;-43.570;172.580;2023-08-31T06:43:25;101777.78;;;13.21;57.48
68855;BME280;69984;-43.570;172.580;2023-08-31T06:45:55;101772.63;;;12.70;59.02
68855;BME280;69984;-43.570;172.580;2023-08-31T06:48:22;101771.63;;;12.71;59.68
68855;BME280;69984;-43.570;172.580;2023-08-31T06:50:49;101770.47;;;12.54;60.22
68855;BME280;69984;-43.570;172.580;2023-08-31T06:53:16;101773.66;;;12.58;59.95
68855;BME280;69984;-43.570;172.580;2023-08-31T06:55:43;101776.72;;;12.32;60.43
68855;BME280;69984;-43.570;172.580;2023-08-31T06:58:11;101770.00;;;12.70;59.51
68855;BME280;69984;-43.570;172.580;2023-08-31T07:00:38;101769.81;;;13.01;58.58
68855;BME280;69984;-43.570;172.580;2023-08-31T07:03:05;101765.91;;;12.96;58.36
68855;BME280;69984;-43.570;172.580;2023-08-31T07:05:42;101771.97;;;12.47;58.92
68855;BME280;69984;-43.570;172.580;2023-08-31T07:08:10;101762.56;;;12.44;59.22
68855;BME280;69984;-43.570;172.580;2023-08-31T07:10:37;101761.31;;;12.48;57.76
68855;BME280;69984;-43.570;172.580;2023-08-31T07:13:05;101766.69;;;12.47;57.35
68855;BME280;69984;-43.570;172.580;2023-08-31T07:15:32;101769.28;;;12.68;57.25
68855;BME280;69984;-43.570;172.580;2023-08-31T07:17:59;101774.28;;;12.40;56.71
68855;BME280;69984;-43.570;172.580;2023-08-31T07:20:26;101775.97;;;12.41;56.18
68855;BME280;69984;-43.570;172.580;2023-08-31T07:22:53;101775.19;;;12.60;55.95
68855;BME280;69984;-43.570;172.580;2023-08-31T07:25:21;101781.47;;;12.69;56.86
68855;BME280;69984;-43.570;172.580;2023-08-31T07:27:48;101773.41;;;12.61;57.55
68855;BME280;69984;-43.570;172.580;2023-08-31T07:30:15;101773.94;;;12.55;57.80
68855;BME280;69984;-43.570;172.580;2023-08-31T07:32:42;101769.94;;;12.60;57.74
68855;BME280;69984;-43.570;172.580;2023-08-31T07:35:09;101765.88;;;12.46;57.38
68855;BME280;69984;-43.570;172.580;2023-08-31T07:37:36;101761.56;;;12.45;57.29
68855;BME280;69984;-43.570;172.580;2023-08-31T07:40:04;101773.41;;;12.30;57.87
68855;BME280;69984;-43.570;172.580;2023-08-31T07:42:36;101764.06;;;12.47;58.22
68855;BME280;69984;-43.570;172.580;2023-08-31T07:45:03;101761.50;;;12.06;59.53
68855;BME280;69984;-43.570;172.580;2023-08-31T07:47:31;101761.75;;;12.23;58.22
68855;BME280;69984;-43.570;172.580;2023-08-31T07:49:59;101759.31;;;12.11;58.46
68855;BME280;69984;-43.570;172.580;2023-08-31T07:52:26;101753.34;;;12.09;59.75
68855;BME280;69984;-43.570;172.580;2023-08-31T07:54:53;101760.09;;;12.01;59.66
68855;BME280;69984;-43.570;172.580;2023-08-31T07:57:20;101759.63;;;11.76;60.51
68855;BME280;69984;-43.570;172.580;2023-08-31T07:59:47;101758.88;;;11.53;61.76
68855;BME280;69984;-43.570;172.580;2023-08-31T08:02:14;101759.44;;;11.57;62.00
68855;BME280;69984;-43.570;172.580;2023-08-31T08:04:42;101764.50;;;11.80;61.45
68855;BME280;69984;-43.570;172.580;2023-08-31T08:07:09;101768.09;;;11.68;62.32
68855;BME280;69984;-43.570;172.580;2023-08-31T08:09:36;101767.91;;;11.60;62.38
68855;BME280;69984;-43.570;172.580;2023-08-31T08:12:04;101773.81;;;11.41;62.83
68855;BME280;69984;-43.570;172.580;2023-08-31T08:14:32;101774.38;;;11.56;62.88
68855;BME280;69984;-43.570;172.580;2023-08-31T08:16:59;101776.78;;;11.48;63.56
68855;BME280;69984;-43.570;172.580;2023-08-31T08:19:26;101771.94;;;11.32;64.72
68855;BME280;69984;-43.570;172.580;2023-08-31T08:21:53;101766.22;;;11.59;63.72
68855;BME280;69984;-43.570;172.580;2023-08-31T08:24:21;101779.34;;;11.59;63.30
68855;BME280;69984;-43.570;172.580;2023-08-31T08:26:48;101781.19;;;11.47;64.40
68855;BME280;69984;-43.570;172.580;2023-08-31T08:29:15;101776.81;;;11.37;64.73
68855;BME280;69984;-43.570;172.580;2023-08-31T08:31:42;101770.91;;;11.56;64.15
68855;BME280;69984;-43.570;172.580;2023-08-31T08:34:09;101768.84;;;11.59;64.30
68855;BME280;69984;-43.570;172.580;2023-08-31T08:36:36;101773.03;;;11.62;64.15
68855;BME280;69984;-43.570;172.580;2023-08-31T08:39:03;101766.84;;;11.51;63.59
68855;BME280;69984;-43.570;172.580;2023-08-31T08:41:32;101769.28;;;11.75;61.49
68855;BME280;69984;-43.570;172.580;2023-08-31T08:44:02;101763.72;;;11.58;60.24
68855;BME280;69984;-43.570;172.580;2023-08-31T08:46:31;101766.94;;;11.61;59.04
68855;BME280;69984;-43.570;172.580;2023-08-31T08:49:00;101767.41;;;11.23;60.04
68855;BME280;69984;-43.570;172.580;2023-08-31T08:51:32;101774.19;;;11.37;59.17
68855;BME280;69984;-43.570;172.580;2023-08-31T08:54:04;101768.16;;;11.14;59.95
68855;BME280;69984;-43.570;172.580;2023-08-31T08:56:31;101772.22;;;10.18;62.27
68855;BME280;69984;-43.570;172.580;2023-08-31T08:58:59;101774.38;;;10.24;62.86
68855;BME280;69984;-43.570;172.580;2023-08-31T09:01:27;101776.09;;;10.59;63.72
68855;BME280;69984;-43.570;172.580;2023-08-31T09:03:54;101762.75;;;10.62;63.89
68855;BME280;69984;-43.570;172.580;2023-08-31T09:06:22;101766.50;;;10.13;64.91
68855;BME280;69984;-43.570;172.580;2023-08-31T09:08:55;101774.53;;;10.34;64.56
68855;BME280;69984;-43.570;172.580;2023-08-31T09:11:23;101778.91;;;10.22;65.44
68855;BME280;69984;-43.570;172.580;2023-08-31T09:13:51;101783.34;;;9.98;66.14
68855;BME280;69984;-43.570;172.580;2023-08-31T09:16:29;101771.91;;;10.34;67.24
68855;BME280;69984;-43.570;172.580;2023-08-31T09:18:57;101780.22;;;10.17;67.39
68855;BME280;69984;-43.570;172.580;2023-08-31T09:21:37;101768.78;;;10.29;68.02
68855;BME280;69984;-43.570;172.580;2023-08-31T09:24:06;101779.50;;;10.26;68.92
68855;BME280;69984;-43.570;172.580;2023-08-31T09:26:45;101773.91;;;10.19;68.68
68855;BME280;69984;-43.570;172.580;2023-08-31T09:29:15;101774.38;;;10.24;67.75
68855;BME280;69984;-43.570;172.580;2023-08-31T09:31:44;101778.38;;;10.06;67.66
68855;BME280;69984;-43.570;172.580;2023-08-31T09:34:12;101774.78;;;10.07;67.75
68855;BME280;69984;-43.570;172.580;2023-08-31T09:36:39;101772.69;;;9.77;67.99
68855;BME280;69984;-43.570;172.580;2023-08-31T09:39:06;101769.38;;;9.51;68.69
68855;BME280;69984;-43.570;172.580;2023-08-31T09:41:35;101767.66;;;9.63;67.17
68855;BME280;69984;-43.570;172.580;2023-08-31T09:44:20;101761.97;;;9.22;68.27
68855;BME280;69984;-43.570;172.580;2023-08-31T09:46:47;101751.91;;;9.28;66.80
68855;BME280;69984;-43.570;172.580;2023-08-31T09:49:18;101742.81;;;9.45;65.77
68855;BME280;69984;-43.570;172.580;2023-08-31T09:51:49;101742.56;;;9.72;65.58
68855;BME280;69984;-43.570;172.580;2023-08-31T09:54:19;101739.25;;;9.46;63.82
68855;BME280;69984;-43.570;172.580;2023-08-31T09:56:48;101736.53;;;9.47;63.53
68855;BME280;69984;-43.570;172.580;2023-08-31T09:59:16;101731.59;;;9.32;63.62
68855;BME280;69984;-43.570;172.580;2023-08-31T10:01:45;101733.28;;;8.96;64.43
68855;BME280;69984;-43.570;172.580;2023-08-31T10:04:13;101733.53;;;8.81;64.24
68855;BME280;69984;-43.570;172.580;2023-08-31T10:06:41;101735.97;;;9.08;63.49
68855;BME280;69984;-43.570;172.580;2023-08-31T10:09:09;101735.09;;;9.20;62.49
68855;BME280;69984;-43.570;172.580;2023-08-31T10:11:40;101735.53;;;8.90;62.93
68855;BME280;69984;-43.570;172.580;2023-08-31T10:14:10;101737.69;;;8.83;63.94
68855;BME280;69984;-43.570;172.580;2023-08-31T10:16:43;101731.72;;;8.58;64.97
68855;BME280;69984;-43.570;172.580;2023-08-31T10:19:11;101735.47;;;9.02;63.18
68855;BME280;69984;-43.570;172.580;2023-08-31T10:21:39;101722.84;;;8.84;63.26
68855;BME280;69984;-43.570;172.580;2023-08-31T10:24:07;101727.22;;;8.96;64.65
68855;BME280;69984;-43.570;172.580;2023-08-31T10:26:34;101724.59;;;8.72;66.82
68855;BME280;69984;-43.570;172.580;2023-08-31T10:29:02;101719.16;;;8.63;67.11
68855;BME280;69984;-43.570;172.580;2023-08-31T10:31:32;101719.00;;;8.89;66.97
68855;BME280;69984;-43.570;172.580;2023-08-31T10:34:02;101721.75;;;8.75;67.07
68855;BME280;69984;-43.570;172.580;2023-08-31T10:36:45;101717.75;;;8.82;66.63
68855;BME280;69984;-43.570;172.580;2023-08-31T10:39:17;101720.03;;;8.87;66.05
68855;BME280;69984;-43.570;172.580;2023-08-31T10:41:55;101725.63;;;9.06;65.40
68855;BME280;69984;-43.570;172.580;2023-08-31T10:44:27;101725.47;;;8.84;65.63
68855;BME280;69984;-43.570;172.580;2023-08-31T10:47:02;101722.72;;;8.62;66.43
68855;BME280;69984;-43.570;172.580;2023-08-31T10:49:30;101731.84;;;8.80;65.60
68855;BME280;69984;-43.570;172.580;2023-08-31T10:52:19;101728.53;;;8.78;64.88
68855;BME280;69984;-43.570;172.580;2023-08-31T10:54:55;101720.47;;;8.81;65.08
68855;BME280;69984;-43.570;172.580;2023-08-31T10:57:30;101725.97;;;8.52;64.48
68855;BME280;69984;-43.570;172.580;2023-08-31T10:59:57;101720.00;;;8.25;63.99
68855;BME280;69984;-43.570;172.580;2023-08-31T11:02:42;101715.00;;;8.22;65.32
68855;BME280;69984;-43.570;172.580;2023-08-31T11:05:17;101716.16;;;8.18;65.69
68855;BME280;69984;-43.570;172.580;2023-08-31T11:07:48;101713.22;;;8.10;67.34
68855;BME280;69984;-43.570;172.580;2023-08-31T11:10:25;101714.81;;;8.13;66.85
68855;BME280;69984;-43.570;172.580;2023-08-31T11:12:56;101719.66;;;7.79;67.31
68855;BME280;69984;-43.570;172.580;2023-08-31T11:15:26;101709.31;;;7.65;67.65
68855;BME280;69984;-43.570;172.580;2023-08-31T11:17:55;101701.47;;;7.52;66.46
68855;BME280;69984;-43.570;172.580;2023-08-31T11:20:23;101700.84;;;7.49;66.88
68855;BME280;69984;-43.570;172.580;2023-08-31T11:22:54;101702.25;;;7.40;67.16
68855;BME280;69984;-43.570;172.580;2023-08-31T11:25:22;101694.84;;;7.34;67.55
68855;BME280;69984;-43.570;172.580;2023-08-31T11:27:56;101696.56;;;7.48;67.21
68855;BME280;69984;-43.570;172.580;2023-08-31T11:30:26;101695.72;;;7.47;67.98
68855;BME280;69984;-43.570;172.580;2023-08-31T11:32:54;101695.78;;;7.33;67.84
68855;BME280;69984;-43.570;172.580;2023-08-31T11:35:22;101693.31;;;7.44;69.20
68855;BME280;69984;-43.570;172.580;2023-08-31T11:37:52;101696.41;;;7.37;70.38
68855;BME280;69984;-43.570;172.580;2023-08-31T11:40:19;101697.78;;;7.42;70.54
68855;BME280;69984;-43.570;172.580;2023-08-31T11:42:48;101689.84;;;7.31;70.01
68855;BME280;69984;-43.570;172.580;2023-08-31T11:45:16;101689.44;;;7.37;69.66
68855;BME280;69984;-43.570;172.580;2023-08-31T11:47:44;101685.91;;;7.38;69.87
68855;BME280;69984;-43.570;172.580;2023-08-31T11:50:12;101674.03;;;7.60;68.26
68855;BME280;69984;-43.570;172.580;2023-08-31T11:52:40;101679.34;;;7.58;66.69
68855;BME280;69984;-43.570;172.580;2023-08-31T11:55:12;101677.94;;;7.27;67.86
68855;BME280;69984;-43.570;172.580;2023-08-31T11:57:40;101672.72;;;7.27;67.51
68855;BME280;69984;-43.570;172.580;2023-08-31T12:00:07;101671.97;;;7.25;68.26
68855;BME280;69984;-43.570;172.580;2023-08-31T12:02:37;101674.44;;;7.53;67.63
68855;BME280;69984;-43.570;172.580;2023-08-31T12:05:05;101678.88;;;7.39;70.38
68855;BME280;69984;-43.570;172.580;2023-08-31T12:07:32;101677.44;;;7.35;70.42
68855;BME280;69984;-43.570;172.580;2023-08-31T12:10:06;101675.16;;;7.43;68.98
68855;BME280;69984;-43.570;172.580;2023-08-31T12:12:34;101676.41;;;7.37;68.51
68855;BME280;69984;-43.570;172.580;2023-08-31T12:15:05;101682.50;;;7.24;68.89
68855;BME280;69984;-43.570;172.580;2023-08-31T12:17:36;101677.75;;;7.43;68.57
68855;BME280;69984;-43.570;172.580;2023-08-31T12:20:04;101673.25;;;7.32;68.14
68855;BME280;69984;-43.570;172.580;2023-08-31T12:22:31;101675.31;;;7.00;69.22
68855;BME280;69984;-43.570;172.580;2023-08-31T12:24:59;101681.03;;;7.20;69.39
68855;BME280;69984;-43.570;172.580;2023-08-31T12:27:26;101690.81;;;7.16;67.47
68855;BME280;69984;-43.570;172.580;2023-08-31T12:29:54;101685.47;;;7.05;67.95
68855;BME280;69984;-43.570;172.580;2023-08-31T12:32:21;101678.88;;;7.39;66.79
68855;BME280;69984;-43.570;172.580;2023-08-31T12:34:48;101684.78;;;7.16;68.45
68855;BME280;69984;-43.570;172.580;2023-08-31T12:37:15;101683.66;;;7.20;68.50
68855;BME280;69984;-43.570;172.580;2023-08-31T12:39:42;101679.28;;;7.20;67.27
68855;BME280;69984;-43.570;172.580;2023-08-31T12:42:12;101678.56;;;7.31;67.08